5TX3 weather

Centerpoint Energy South Houston Heliport
South Houston, Texas, United States

Public forecast

Using degrees Fahrenheit for public forecast. Weather courtesy of forecast.io.

Closest aviation weather report (METAR) to Centerpoint Energy South Houston Heliport

Closest report is Ellington Airport, 3.5 nm (6.4 km) SE. Retrieved 2019/11/14 02:50 UTC (25 minutes ago):

KEFD 140250Z 00000KT 10SM BKN080 OVC120 07/01 A3019

Closest aviation forecast (TAF) to Centerpoint Energy South Houston Heliport

Closest forecast is Ellington Airport, 3.5 nm (6.4 km) SE. Retrieved 2019-11-14 04:05 UTC (0 seconds ago):

TAF KEFD 140400Z 1404/1510 VRB06KT 9999 SCT030 BKN050 QNH3010INS BECMG 1405/1406 05009KT 9000 -RA SCT015 BKN025 QNH3010INS BECMG 1412/1413 05012KT 9000 -RA BKN008 QNH3013INS BECMG 1422/1423 03006KT 9999 NSW SCT025 BKN050 QNH3020INS BECMG 1508/1509 01006KT 9999 SKC QNH3025INS TX07/1420Z TN06/1413Z